METAR Formatted Surface Weather Observation
Issued by NWS

Home | Current Version | Previous Version | Text Only | Print | Product List | Glossary On
Versions: 1 2 3 4 5 6 7 8 9 10 11 12 13 14 15 16 17 18 19 20
000
SAUS45 KTWC 190657
MTRSAD
METAR KSAD 190651Z AUTO 09006KT 10SM CLR 14/08 A2999 RMK AO2 SLP121
T01390078 402610133



USA.gov is the U.S. government's official web portal to all federal, state and local government web resources and services.